This is the latest recevied weather packets stored in our database for station/object KD7ECD. If no packets are shown the sender has not sent any weather packets the latest 10 day(s).
| Time | Temp. | Humidity | Pressure | Rain* | Wind** | Luminosity | Snow |
|---|---|---|---|---|---|---|---|
| 1777678425 | 25° C | 52% | 1014.6 hPa | 0 mm | - | 406 W/m² | - |
| 1777677823 | 24.44° C | 54% | 1014.8 hPa | 0 mm | - | 405 W/m² | - |
| 1777677218 | 24.44° C | 52% | 1014.8 hPa | 0 mm | - | 387 W/m² | - |
| 1777676616 | 23.89° C | 55% | 1015.1 hPa | 0 mm | - | 404 W/m² | - |
| 1777676016 | 23.89° C | 53% | 1015.1 hPa | 0 mm | - | 615 W/m² | - |
| 1777675414 | 23.33° C | 54% | 1015.5 hPa | 0 mm | - | 691 W/m² | - |
| 1777674813 | 23.33° C | 55% | 1015.7 hPa | 0 mm | - | 613 W/m² | - |
| 1777674213 | 23.33° C | 55% | 1016 hPa | 0 mm | - | 697 W/m² | - |
| 1777673612 | 23.33° C | 54% | 1016 hPa | 0 mm | - | 574 W/m² | - |
| 1777673007 | 23.33° C | 53% | 1015.8 hPa | 0 mm | - | 607 W/m² | - |
| 1777672405 | 23.33° C | 55% | 1016.1 hPa | 0 mm | - | 660 W/m² | - |
| 1777671802 | 22.78° C | 55% | 1016.2 hPa | 0 mm | - | 725 W/m² | - |
| 1777671201 | 22.78° C | 55% | 1016.4 hPa | 0 mm | - | 713 W/m² | - |
| 1777670599 | 22.22° C | 57% | 1016.2 hPa | 0 mm | - | 596 W/m² | - |
| 1777670000 | 21.67° C | 59% | 1016.4 hPa | 0 mm | - | 678 W/m² | - |
| 1777669400 | 21.67° C | 60% | 1016.3 hPa | 0 mm | - | 684 W/m² | - |
| 1777668799 | 21.67° C | 60% | 1016.4 hPa | 0 mm | - | 760 W/m² | - |
| 1777668198 | 21.11° C | 59% | 1016.4 hPa | 0 mm | - | 639 W/m² | - |
| 1777667597 | 21.67° C | 58% | 1016.5 hPa | 0 mm | - | 780 W/m² | - |
| 1777666997 | 21.11° C | 56% | 1016.4 hPa | 0 mm | - | 737 W/m² | - |
| 1777666396 | 21.11° C | 58% | 1016.7 hPa | 0 mm | - | 617 W/m² | - |
| 1777665796 | 21.67° C | 57% | 1016.7 hPa | 0 mm | - | 812 W/m² | - |
| 1777665195 | 21.11° C | 59% | 1017 hPa | 0 mm | - | 806 W/m² | - |
| 1777664593 | 20.56° C | 58% | 1016.9 hPa | 0 mm | - | 842 W/m² | - |
| 1777663988 | 20.56° C | 57% | 1017 hPa | 0 mm | - | 868 W/m² | - |
* Rain latest hour (hover to see other rain measurements)
** Current wind speed in m/s (hover to see current wind gust speed)